Pagrindinis puslapis
METAR-TAF:

METAR-TAF

Oro uostai :

Vekšė, Švedija

platuma: 56-51N, ilguma: 014-50E, Aukštis: 199 m

Dabartinis oras

Ataskaita buvo paskelbta 14 minutes, ne 12:50 UTC
Vėjas 13 kt iš Pietų
Temperatūra 5°C
Drėgmė 93%
Slėgis 1002 hPa
Matomumas 10 km arba daugiau
Su prošvaistėmis ne aukštis 800 ft
Su prošvaistėmis ne aukštis 1000 ft

METAR: ESMX 161250Z 18013KT 9999 BKN008 BKN010 05/04 Q1002

Laikas: 14:04 (13:04 UTC)

Prognozė

Ataskaita buvo paskelbta 1 valandą ir 34 minutes, ne 11:30 UTC
Prognozė galioja nuo 16 metu 12 UTC su 16 metu 21 UTC
Vėjas 8 kt iš Pietvakarių
Matomumas 10 km arba daugiau
Su prošvaistėmis ne aukštis 600 ft
Tikimybė 40%
nuo 16 metu 12 UTC su 16 metu 16 UTC
Išsisklaidę debesys ne aukštis 600 ft
Su prošvaistėmis ne aukštis 2000 ft
Tikimybė 40%
nuo 16 metu 16 UTC su 16 metu 21 UTC
Matomumas: 4000 m
Su prošvaistėmis ne aukštis 400 ft
lietus, rūkana

TAF: ESMX 161130Z 1612/1621 22008KT 9999 BKN006 PROB40 1612/1616 SCT006 BKN020 PROB40 1616/1621 4000 -RA BR BKN004

Orai ataskaitas ir orų prognozės (METAR, TAF).

turimą stotys yra geltonos ir raudonos taškus žemėlapyje.

Perkelti pele per norėdami pamatyti stoties vardą.

Tada spustelėkite, norėdami matyti oro stebėjimo ir prognozės.

Norėdami pakeisti žemėlapį: spustelėkite ant žalios mygtukų su juodo kryžiaus žemyn,; žalią mygtuką su brūkšneliu, jei norite nutolinti; arba žalių rodyklių gretimoms žemėlapius.


METAR-TAF: